sensor_id;sensor_type;location;lat;lon;timestamp;P1;durP1;ratioP1;P2;durP2;ratioP2
27113;SDS011;14648;49.730;8.614;2023-02-23T00:01:27;43.40;;;23.70;;
27113;SDS011;14648;49.730;8.614;2023-02-23T00:03:55;39.67;;;22.83;;
27113;SDS011;14648;49.730;8.614;2023-02-23T00:06:22;48.07;;;25.93;;
27113;SDS011;14648;49.730;8.614;2023-02-23T00:08:53;46.90;;;24.93;;
27113;SDS011;14648;49.730;8.614;2023-02-23T00:11:19;42.33;;;23.60;;
27113;SDS011;14648;49.730;8.614;2023-02-23T00:13:47;49.97;;;26.27;;
27113;SDS011;14648;49.730;8.614;2023-02-23T00:16:15;46.97;;;24.90;;
27113;SDS011;14648;49.730;8.614;2023-02-23T00:18:48;46.60;;;25.60;;
27113;SDS011;14648;49.730;8.614;2023-02-23T00:21:30;52.77;;;26.97;;
27113;SDS011;14648;49.730;8.614;2023-02-23T00:24:17;55.73;;;25.83;;
27113;SDS011;14648;49.730;8.614;2023-02-23T00:26:44;48.43;;;25.10;;
27113;SDS011;14648;49.730;8.614;2023-02-23T00:29:12;46.37;;;27.00;;
27113;SDS011;14648;49.730;8.614;2023-02-23T00:31:44;46.03;;;25.40;;
27113;SDS011;14648;49.730;8.614;2023-02-23T00:34:12;59.00;;;26.73;;
27113;SDS011;14648;49.730;8.614;2023-02-23T00:36:39;52.93;;;25.63;;
27113;SDS011;14648;49.730;8.614;2023-02-23T00:39:07;44.00;;;24.40;;
27113;SDS011;14648;49.730;8.614;2023-02-23T00:41:56;45.17;;;25.20;;
27113;SDS011;14648;49.730;8.614;2023-02-23T00:44:26;53.53;;;27.60;;
27113;SDS011;14648;49.730;8.614;2023-02-23T00:46:52;63.53;;;29.20;;
27113;SDS011;14648;49.730;8.614;2023-02-23T00:49:18;51.60;;;27.90;;
27113;SDS011;14648;49.730;8.614;2023-02-23T00:51:47;49.90;;;26.67;;
27113;SDS011;14648;49.730;8.614;2023-02-23T00:54:13;52.30;;;25.90;;
27113;SDS011;14648;49.730;8.614;2023-02-23T00:56:41;56.47;;;28.20;;
27113;SDS011;14648;49.730;8.614;2023-02-23T00:59:07;56.80;;;26.40;;
27113;SDS011;14648;49.730;8.614;2023-02-23T01:01:34;52.13;;;28.70;;
27113;SDS011;14648;49.730;8.614;2023-02-23T01:04:01;53.43;;;26.90;;
27113;SDS011;14648;49.730;8.614;2023-02-23T01:06:27;47.13;;;27.97;;
27113;SDS011;14648;49.730;8.614;2023-02-23T01:08:53;59.60;;;27.37;;
27113;SDS011;14648;49.730;8.614;2023-02-23T01:11:21;52.37;;;28.53;;
27113;SDS011;14648;49.730;8.614;2023-02-23T01:13:52;48.77;;;25.77;;
27113;SDS011;14648;49.730;8.614;2023-02-23T01:16:21;43.90;;;26.10;;
27113;SDS011;14648;49.730;8.614;2023-02-23T01:18:53;42.53;;;25.13;;
27113;SDS011;14648;49.730;8.614;2023-02-23T01:21:25;51.10;;;26.50;;
27113;SDS011;14648;49.730;8.614;2023-02-23T01:23:56;48.93;;;25.10;;
27113;SDS011;14648;49.730;8.614;2023-02-23T01:26:26;44.00;;;24.10;;
27113;SDS011;14648;49.730;8.614;2023-02-23T01:28:58;57.87;;;22.90;;
27113;SDS011;14648;49.730;8.614;2023-02-23T01:31:48;46.57;;;23.47;;
27113;SDS011;14648;49.730;8.614;2023-02-23T01:34:17;41.47;;;23.63;;
27113;SDS011;14648;49.730;8.614;2023-02-23T01:36:45;46.57;;;24.93;;
27113;SDS011;14648;49.730;8.614;2023-02-23T01:39:12;44.57;;;25.07;;
27113;SDS011;14648;49.730;8.614;2023-02-23T01:41:40;47.77;;;24.03;;
27113;SDS011;14648;49.730;8.614;2023-02-23T01:46:39;44.57;;;24.60;;
27113;SDS011;14648;49.730;8.614;2023-02-23T01:49:27;49.07;;;24.90;;
27113;SDS011;14648;49.730;8.614;2023-02-23T01:54:37;45.00;;;23.40;;
27113;SDS011;14648;49.730;8.614;2023-02-23T01:57:17;43.17;;;23.77;;
27113;SDS011;14648;49.730;8.614;2023-02-23T01:59:47;47.50;;;26.60;;
27113;SDS011;14648;49.730;8.614;2023-02-23T02:02:17;52.07;;;26.87;;
27113;SDS011;14648;49.730;8.614;2023-02-23T02:04:47;46.43;;;24.80;;
27113;SDS011;14648;49.730;8.614;2023-02-23T02:07:22;52.03;;;27.93;;
27113;SDS011;14648;49.730;8.614;2023-02-23T02:09:53;46.23;;;25.63;;
27113;SDS011;14648;49.730;8.614;2023-02-23T02:12:54;42.60;;;23.93;;
27113;SDS011;14648;49.730;8.614;2023-02-23T02:15:22;45.00;;;24.27;;
27113;SDS011;14648;49.730;8.614;2023-02-23T02:24:00;44.00;;;25.60;;
27113;SDS011;14648;49.730;8.614;2023-02-23T02:36:06;51.53;;;24.60;;
27113;SDS011;14648;49.730;8.614;2023-02-23T02:39:27;43.47;;;23.37;;
27113;SDS011;14648;49.730;8.614;2023-02-23T02:42:27;64.60;;;26.57;;
27113;SDS011;14648;49.730;8.614;2023-02-23T02:45:10;48.20;;;25.40;;
27113;SDS011;14648;49.730;8.614;2023-02-23T02:48:38;43.83;;;25.67;;
27113;SDS011;14648;49.730;8.614;2023-02-23T02:54:24;49.57;;;23.43;;
27113;SDS011;14648;49.730;8.614;2023-02-23T02:57:02;49.47;;;25.50;;
27113;SDS011;14648;49.730;8.614;2023-02-23T02:59:30;46.73;;;27.07;;
27113;SDS011;14648;49.730;8.614;2023-02-23T03:02:25;56.93;;;25.47;;
27113;SDS011;14648;49.730;8.614;2023-02-23T03:05:19;54.90;;;26.83;;
27113;SDS011;14648;49.730;8.614;2023-02-23T03:08:20;44.57;;;23.10;;
27113;SDS011;14648;49.730;8.614;2023-02-23T03:11:25;54.83;;;26.30;;
27113;SDS011;14648;49.730;8.614;2023-02-23T03:14:25;49.30;;;23.63;;
27113;SDS011;14648;49.730;8.614;2023-02-23T03:20:09;46.63;;;24.47;;
27113;SDS011;14648;49.730;8.614;2023-02-23T03:23:22;52.60;;;24.47;;
27113;SDS011;14648;49.730;8.614;2023-02-23T03:26:27;41.30;;;23.67;;
27113;SDS011;14648;49.730;8.614;2023-02-23T03:32:37;42.67;;;23.67;;
27113;SDS011;14648;49.730;8.614;2023-02-23T03:38:35;45.53;;;24.07;;
27113;SDS011;14648;49.730;8.614;2023-02-23T03:41:39;48.60;;;26.07;;
27113;SDS011;14648;49.730;8.614;2023-02-23T03:44:26;47.73;;;24.40;;
27113;SDS011;14648;49.730;8.614;2023-02-23T03:47:15;50.70;;;25.70;;
27113;SDS011;14648;49.730;8.614;2023-02-23T03:50:03;48.53;;;26.20;;
27113;SDS011;14648;49.730;8.614;2023-02-23T03:52:53;50.27;;;23.53;;
27113;SDS011;14648;49.730;8.614;2023-02-23T03:55:42;53.10;;;27.57;;
27113;SDS011;14648;49.730;8.614;2023-02-23T03:58:35;59.30;;;27.40;;
27113;SDS011;14648;49.730;8.614;2023-02-23T04:01:25;51.67;;;26.97;;
27113;SDS011;14648;49.730;8.614;2023-02-23T04:04:10;50.50;;;26.70;;
27113;SDS011;14648;49.730;8.614;2023-02-23T04:06:56;57.13;;;25.90;;
27113;SDS011;14648;49.730;8.614;2023-02-23T04:09:43;57.63;;;26.77;;
27113;SDS011;14648;49.730;8.614;2023-02-23T04:12:39;54.60;;;27.07;;
27113;SDS011;14648;49.730;8.614;2023-02-23T04:15:48;58.23;;;26.50;;
27113;SDS011;14648;49.730;8.614;2023-02-23T04:18:26;49.10;;;23.53;;
27113;SDS011;14648;49.730;8.614;2023-02-23T04:20:54;43.93;;;23.37;;
27113;SDS011;14648;49.730;8.614;2023-02-23T04:23:22;48.33;;;24.70;;
27113;SDS011;14648;49.730;8.614;2023-02-23T04:25:49;45.37;;;23.20;;
27113;SDS011;14648;49.730;8.614;2023-02-23T04:28:16;44.97;;;22.67;;
27113;SDS011;14648;49.730;8.614;2023-02-23T04:30:43;60.03;;;23.90;;
27113;SDS011;14648;49.730;8.614;2023-02-23T04:33:09;46.60;;;24.30;;
27113;SDS011;14648;49.730;8.614;2023-02-23T04:35:35;54.67;;;24.50;;
27113;SDS011;14648;49.730;8.614;2023-02-23T04:38:01;45.83;;;24.90;;
27113;SDS011;14648;49.730;8.614;2023-02-23T04:40:27;47.63;;;25.17;;
27113;SDS011;14648;49.730;8.614;2023-02-23T04:42:53;56.40;;;26.77;;
27113;SDS011;14648;49.730;8.614;2023-02-23T04:45:23;49.13;;;22.83;;
27113;SDS011;14648;49.730;8.614;2023-02-23T04:47:50;49.27;;;22.60;;
27113;SDS011;14648;49.730;8.614;2023-02-23T04:50:16;44.20;;;25.07;;
27113;SDS011;14648;49.730;8.614;2023-02-23T04:52:42;49.73;;;25.13;;
27113;SDS011;14648;49.730;8.614;2023-02-23T04:55:12;52.23;;;24.00;;
27113;SDS011;14648;49.730;8.614;2023-02-23T04:57:46;48.40;;;25.97;;
27113;SDS011;14648;49.730;8.614;2023-02-23T05:00:12;54.73;;;27.47;;
27113;SDS011;14648;49.730;8.614;2023-02-23T05:02:39;54.10;;;25.30;;
27113;SDS011;14648;49.730;8.614;2023-02-23T05:05:06;52.43;;;24.00;;
27113;SDS011;14648;49.730;8.614;2023-02-23T05:07:33;51.93;;;25.40;;
27113;SDS011;14648;49.730;8.614;2023-02-23T05:09:59;58.00;;;26.17;;
27113;SDS011;14648;49.730;8.614;2023-02-23T05:12:25;47.03;;;25.30;;
27113;SDS011;14648;49.730;8.614;2023-02-23T05:14:54;52.47;;;27.10;;
27113;SDS011;14648;49.730;8.614;2023-02-23T05:17:20;54.20;;;28.20;;
27113;SDS011;14648;49.730;8.614;2023-02-23T05:19:46;49.80;;;26.40;;
27113;SDS011;14648;49.730;8.614;2023-02-23T05:22:12;42.80;;;25.17;;
27113;SDS011;14648;49.730;8.614;2023-02-23T05:24:38;57.17;;;29.07;;
27113;SDS011;14648;49.730;8.614;2023-02-23T05:27:05;61.60;;;28.70;;
27113;SDS011;14648;49.730;8.614;2023-02-23T05:29:33;51.37;;;26.60;;
27113;SDS011;14648;49.730;8.614;2023-02-23T05:31:59;66.43;;;28.83;;
27113;SDS011;14648;49.730;8.614;2023-02-23T05:34:24;53.23;;;29.67;;
27113;SDS011;14648;49.730;8.614;2023-02-23T05:36:51;54.40;;;28.40;;
27113;SDS011;14648;49.730;8.614;2023-02-23T05:39:18;63.53;;;32.20;;
27113;SDS011;14648;49.730;8.614;2023-02-23T05:41:44;60.23;;;29.40;;
27113;SDS011;14648;49.730;8.614;2023-02-23T05:44:10;69.83;;;31.33;;
27113;SDS011;14648;49.730;8.614;2023-02-23T05:46:35;59.87;;;28.27;;
27113;SDS011;14648;49.730;8.614;2023-02-23T05:49:01;54.13;;;29.73;;
27113;SDS011;14648;49.730;8.614;2023-02-23T05:51:28;58.17;;;30.20;;
27113;SDS011;14648;49.730;8.614;2023-02-23T05:53:55;70.67;;;31.23;;
27113;SDS011;14648;49.730;8.614;2023-02-23T05:56:21;73.60;;;32.57;;
27113;SDS011;14648;49.730;8.614;2023-02-23T05:58:48;64.00;;;31.37;;
27113;SDS011;14648;49.730;8.614;2023-02-23T06:01:16;67.97;;;32.07;;
27113;SDS011;14648;49.730;8.614;2023-02-23T06:03:42;66.07;;;31.50;;
27113;SDS011;14648;49.730;8.614;2023-02-23T06:06:12;61.40;;;30.63;;
27113;SDS011;14648;49.730;8.614;2023-02-23T06:08:38;55.97;;;30.77;;
27113;SDS011;14648;49.730;8.614;2023-02-23T06:11:04;64.53;;;32.20;;
27113;SDS011;14648;49.730;8.614;2023-02-23T06:13:30;62.43;;;31.80;;
27113;SDS011;14648;49.730;8.614;2023-02-23T06:15:57;69.33;;;33.47;;
27113;SDS011;14648;49.730;8.614;2023-02-23T06:18:42;81.10;;;32.53;;
27113;SDS011;14648;49.730;8.614;2023-02-23T06:21:08;67.90;;;31.20;;
27113;SDS011;14648;49.730;8.614;2023-02-23T06:23:34;62.70;;;31.27;;
27113;SDS011;14648;49.730;8.614;2023-02-23T06:25:59;61.80;;;31.47;;
27113;SDS011;14648;49.730;8.614;2023-02-23T06:28:26;74.10;;;31.40;;
27113;SDS011;14648;49.730;8.614;2023-02-23T06:30:53;67.23;;;31.83;;
27113;SDS011;14648;49.730;8.614;2023-02-23T06:33:19;69.83;;;30.80;;
27113;SDS011;14648;49.730;8.614;2023-02-23T06:35:46;68.23;;;31.83;;
27113;SDS011;14648;49.730;8.614;2023-02-23T06:38:11;65.07;;;31.67;;
27113;SDS011;14648;49.730;8.614;2023-02-23T06:40:37;69.93;;;32.37;;
27113;SDS011;14648;49.730;8.614;2023-02-23T06:43:04;71.73;;;32.00;;
27113;SDS011;14648;49.730;8.614;2023-02-23T06:45:30;60.73;;;30.33;;
27113;SDS011;14648;49.730;8.614;2023-02-23T06:47:56;64.23;;;30.53;;
27113;SDS011;14648;49.730;8.614;2023-02-23T06:50:23;73.40;;;31.80;;
27113;SDS011;14648;49.730;8.614;2023-02-23T06:52:49;77.00;;;30.97;;
27113;SDS011;14648;49.730;8.614;2023-02-23T06:55:15;58.10;;;30.33;;
27113;SDS011;14648;49.730;8.614;2023-02-23T06:57:41;62.73;;;31.53;;
27113;SDS011;14648;49.730;8.614;2023-02-23T07:00:08;69.00;;;33.07;;
27113;SDS011;14648;49.730;8.614;2023-02-23T07:02:39;61.43;;;30.57;;
27113;SDS011;14648;49.730;8.614;2023-02-23T07:05:06;63.33;;;32.67;;
27113;SDS011;14648;49.730;8.614;2023-02-23T07:07:32;70.93;;;33.30;;
27113;SDS011;14648;49.730;8.614;2023-02-23T07:09:58;73.70;;;33.87;;
27113;SDS011;14648;49.730;8.614;2023-02-23T07:12:24;70.00;;;33.40;;
27113;SDS011;14648;49.730;8.614;2023-02-23T07:14:50;63.33;;;34.20;;
27113;SDS011;14648;49.730;8.614;2023-02-23T07:17:16;80.53;;;34.57;;
27113;SDS011;14648;49.730;8.614;2023-02-23T07:19:41;71.27;;;31.77;;
27113;SDS011;14648;49.730;8.614;2023-02-23T07:22:08;67.47;;;34.57;;
27113;SDS011;14648;49.730;8.614;2023-02-23T07:24:34;67.03;;;35.67;;
27113;SDS011;14648;49.730;8.614;2023-02-23T07:27:03;72.90;;;36.53;;
27113;SDS011;14648;49.730;8.614;2023-02-23T07:29:32;66.13;;;34.07;;
27113;SDS011;14648;49.730;8.614;2023-02-23T07:31:57;68.70;;;32.90;;
27113;SDS011;14648;49.730;8.614;2023-02-23T07:34:25;68.77;;;32.80;;
27113;SDS011;14648;49.730;8.614;2023-02-23T07:36:50;70.63;;;32.37;;
27113;SDS011;14648;49.730;8.614;2023-02-23T07:39:16;60.13;;;31.80;;
27113;SDS011;14648;49.730;8.614;2023-02-23T07:41:42;67.03;;;32.03;;
27113;SDS011;14648;49.730;8.614;2023-02-23T07:44:07;75.10;;;30.90;;
27113;SDS011;14648;49.730;8.614;2023-02-23T07:46:33;65.20;;;32.70;;
27113;SDS011;14648;49.730;8.614;2023-02-23T07:49:02;70.77;;;32.63;;
27113;SDS011;14648;49.730;8.614;2023-02-23T07:51:28;66.17;;;33.90;;
27113;SDS011;14648;49.730;8.614;2023-02-23T07:53:53;77.47;;;35.67;;
27113;SDS011;14648;49.730;8.614;2023-02-23T07:56:19;72.40;;;36.33;;
27113;SDS011;14648;49.730;8.614;2023-02-23T07:58:45;70.43;;;35.80;;
27113;SDS011;14648;49.730;8.614;2023-02-23T08:01:11;74.63;;;33.53;;
27113;SDS011;14648;49.730;8.614;2023-02-23T08:03:37;65.97;;;33.63;;
27113;SDS011;14648;49.730;8.614;2023-02-23T08:06:04;63.90;;;30.87;;
27113;SDS011;14648;49.730;8.614;2023-02-23T08:08:30;74.27;;;31.63;;
27113;SDS011;14648;49.730;8.614;2023-02-23T08:10:58;59.17;;;29.00;;
27113;SDS011;14648;49.730;8.614;2023-02-23T08:13:28;65.30;;;32.77;;
27113;SDS011;14648;49.730;8.614;2023-02-23T08:15:56;65.60;;;31.73;;
27113;SDS011;14648;49.730;8.614;2023-02-23T08:18:23;72.90;;;33.37;;
27113;SDS011;14648;49.730;8.614;2023-02-23T08:20:49;58.80;;;31.90;;
27113;SDS011;14648;49.730;8.614;2023-02-23T08:23:15;57.57;;;28.77;;
27113;SDS011;14648;49.730;8.614;2023-02-23T08:25:42;57.80;;;29.73;;
27113;SDS011;14648;49.730;8.614;2023-02-23T08:28:08;56.97;;;30.90;;
27113;SDS011;14648;49.730;8.614;2023-02-23T08:30:34;52.83;;;29.20;;
27113;SDS011;14648;49.730;8.614;2023-02-23T08:32:59;64.83;;;31.63;;
27113;SDS011;14648;49.730;8.614;2023-02-23T08:35:26;49.43;;;27.60;;
27113;SDS011;14648;49.730;8.614;2023-02-23T08:37:55;71.10;;;31.87;;
27113;SDS011;14648;49.730;8.614;2023-02-23T08:40:22;62.70;;;32.43;;
27113;SDS011;14648;49.730;8.614;2023-02-23T08:42:47;62.00;;;30.20;;
27113;SDS011;14648;49.730;8.614;2023-02-23T08:45:13;55.47;;;30.07;;
27113;SDS011;14648;49.730;8.614;2023-02-23T08:47:39;64.53;;;31.63;;
27113;SDS011;14648;49.730;8.614;2023-02-23T08:50:06;59.03;;;31.50;;
27113;SDS011;14648;49.730;8.614;2023-02-23T08:52:35;55.97;;;28.80;;
27113;SDS011;14648;49.730;8.614;2023-02-23T08:55:04;54.43;;;31.53;;
27113;SDS011;14648;49.730;8.614;2023-02-23T08:57:32;60.47;;;30.50;;
27113;SDS011;14648;49.730;8.614;2023-02-23T08:59:59;67.83;;;30.60;;
27113;SDS011;14648;49.730;8.614;2023-02-23T09:02:24;67.73;;;30.80;;
27113;SDS011;14648;49.730;8.614;2023-02-23T09:04:51;55.80;;;29.87;;
27113;SDS011;14648;49.730;8.614;2023-02-23T09:07:19;59.77;;;29.27;;
27113;SDS011;14648;49.730;8.614;2023-02-23T09:09:55;63.77;;;30.90;;
27113;SDS011;14648;49.730;8.614;2023-02-23T09:12:22;53.53;;;29.73;;
27113;SDS011;14648;49.730;8.614;2023-02-23T09:14:48;54.63;;;27.90;;
27113;SDS011;14648;49.730;8.614;2023-02-23T09:17:15;62.97;;;31.30;;
27113;SDS011;14648;49.730;8.614;2023-02-23T09:19:42;55.97;;;31.13;;
27113;SDS011;14648;49.730;8.614;2023-02-23T09:22:08;60.07;;;31.00;;
27113;SDS011;14648;49.730;8.614;2023-02-23T09:24:34;59.30;;;29.23;;
27113;SDS011;14648;49.730;8.614;2023-02-23T09:26:59;54.13;;;28.13;;
27113;SDS011;14648;49.730;8.614;2023-02-23T09:29:25;58.60;;;28.73;;
27113;SDS011;14648;49.730;8.614;2023-02-23T09:31:51;54.57;;;29.00;;
27113;SDS011;14648;49.730;8.614;2023-02-23T09:34:17;48.40;;;28.10;;
27113;SDS011;14648;49.730;8.614;2023-02-23T09:36:43;53.50;;;30.00;;
27113;SDS011;14648;49.730;8.614;2023-02-23T09:39:09;67.17;;;28.03;;
27113;SDS011;14648;49.730;8.614;2023-02-23T09:49:58;54.90;;;27.77;;
27113;SDS011;14648;49.730;8.614;2023-02-23T09:52:32;47.80;;;25.73;;
27113;SDS011;14648;49.730;8.614;2023-02-23T09:55:05;51.93;;;27.00;;
27113;SDS011;14648;49.730;8.614;2023-02-23T09:57:37;47.80;;;25.97;;
27113;SDS011;14648;49.730;8.614;2023-02-23T10:06:00;47.23;;;24.17;;
27113;SDS011;14648;49.730;8.614;2023-02-23T10:14:51;46.27;;;25.30;;
27113;SDS011;14648;49.730;8.614;2023-02-23T10:23:09;44.50;;;24.27;;
27113;SDS011;14648;49.730;8.614;2023-02-23T10:25:45;39.70;;;23.40;;
27113;SDS011;14648;49.730;8.614;2023-02-23T10:28:14;48.90;;;24.10;;
27113;SDS011;14648;49.730;8.614;2023-02-23T10:30:44;47.97;;;23.57;;
27113;SDS011;14648;49.730;8.614;2023-02-23T10:35:57;48.07;;;28.03;;
27113;SDS011;14648;49.730;8.614;2023-02-23T10:38:38;45.60;;;25.27;;
27113;SDS011;14648;49.730;8.614;2023-02-23T10:41:04;50.37;;;25.17;;
27113;SDS011;14648;49.730;8.614;2023-02-23T10:43:30;42.17;;;23.60;;
27113;SDS011;14648;49.730;8.614;2023-02-23T10:45:57;52.33;;;23.43;;
27113;SDS011;14648;49.730;8.614;2023-02-23T10:48:24;45.87;;;25.93;;
27113;SDS011;14648;49.730;8.614;2023-02-23T10:50:55;39.10;;;21.90;;
27113;SDS011;14648;49.730;8.614;2023-02-23T10:53:31;36.33;;;21.63;;
27113;SDS011;14648;49.730;8.614;2023-02-23T10:56:00;37.80;;;19.87;;
27113;SDS011;14648;49.730;8.614;2023-02-23T10:58:42;42.97;;;20.00;;
27113;SDS011;14648;49.730;8.614;2023-02-23T11:01:10;34.20;;;19.40;;
27113;SDS011;14648;49.730;8.614;2023-02-23T11:03:39;32.87;;;18.87;;
27113;SDS011;14648;49.730;8.614;2023-02-23T11:09:05;35.37;;;19.70;;
27113;SDS011;14648;49.730;8.614;2023-02-23T11:11:58;35.40;;;21.27;;
27113;SDS011;14648;49.730;8.614;2023-02-23T11:14:41;31.50;;;18.90;;
27113;SDS011;14648;49.730;8.614;2023-02-23T11:17:08;36.33;;;19.33;;
27113;SDS011;14648;49.730;8.614;2023-02-23T11:19:56;27.73;;;17.50;;
27113;SDS011;14648;49.730;8.614;2023-02-23T11:22:35;32.93;;;18.20;;
27113;SDS011;14648;49.730;8.614;2023-02-23T11:25:02;28.50;;;16.97;;
27113;SDS011;14648;49.730;8.614;2023-02-23T11:27:44;26.67;;;15.90;;
27113;SDS011;14648;49.730;8.614;2023-02-23T11:30:15;27.00;;;15.03;;
27113;SDS011;14648;49.730;8.614;2023-02-23T11:32:48;23.63;;;15.33;;
27113;SDS011;14648;49.730;8.614;2023-02-23T11:37:47;28.23;;;13.80;;
27113;SDS011;14648;49.730;8.614;2023-02-23T11:43:05;25.27;;;14.63;;
27113;SDS011;14648;49.730;8.614;2023-02-23T11:48:18;22.67;;;11.97;;
27113;SDS011;14648;49.730;8.614;2023-02-23T11:50:56;20.70;;;12.77;;
27113;SDS011;14648;49.730;8.614;2023-02-23T11:53:26;17.73;;;11.47;;
27113;SDS011;14648;49.730;8.614;2023-02-23T11:56:00;27.00;;;11.00;;
27113;SDS011;14648;49.730;8.614;2023-02-23T11:58:51;18.00;;;11.70;;
27113;SDS011;14648;49.730;8.614;2023-02-23T12:01:23;15.87;;;10.33;;
27113;SDS011;14648;49.730;8.614;2023-02-23T12:04:05;14.07;;;8.30;;
27113;SDS011;14648;49.730;8.614;2023-02-23T12:06:37;12.43;;;7.90;;
27113;SDS011;14648;49.730;8.614;2023-02-23T12:11:43;10.10;;;6.80;;
27113;SDS011;14648;49.730;8.614;2023-02-23T12:14:22;9.70;;;6.30;;
27113;SDS011;14648;49.730;8.614;2023-02-23T12:17:05;7.37;;;5.23;;
27113;SDS011;14648;49.730;8.614;2023-02-23T12:19:44;8.10;;;5.87;;
27113;SDS011;14648;49.730;8.614;2023-02-23T12:22:22;14.13;;;6.60;;
27113;SDS011;14648;49.730;8.614;2023-02-23T12:25:10;9.53;;;6.10;;
27113;SDS011;14648;49.730;8.614;2023-02-23T12:31:02;6.83;;;5.43;;
27113;SDS011;14648;49.730;8.614;2023-02-23T12:33:56;8.23;;;5.37;;
27113;SDS011;14648;49.730;8.614;2023-02-23T12:36:39;6.70;;;4.80;;
27113;SDS011;14648;49.730;8.614;2023-02-23T12:39:13;9.30;;;6.20;;
27113;SDS011;14648;49.730;8.614;2023-02-23T12:44:53;11.10;;;5.10;;
27113;SDS011;14648;49.730;8.614;2023-02-23T12:50:30;7.93;;;5.07;;
27113;SDS011;14648;49.730;8.614;2023-02-23T12:53:25;11.00;;;5.40;;
27113;SDS011;14648;49.730;8.614;2023-02-23T13:03:56;6.07;;;4.53;;
27113;SDS011;14648;49.730;8.614;2023-02-23T13:06:49;7.37;;;4.97;;
27113;SDS011;14648;49.730;8.614;2023-02-23T13:17:57;6.03;;;3.53;;
27113;SDS011;14648;49.730;8.614;2023-02-23T13:23:37;11.67;;;4.13;;
27113;SDS011;14648;49.730;8.614;2023-02-23T13:32:10;7.23;;;4.73;;
27113;SDS011;14648;49.730;8.614;2023-02-23T13:34:43;9.53;;;4.73;;
27113;SDS011;14648;49.730;8.614;2023-02-23T13:37:17;5.87;;;4.40;;
27113;SDS011;14648;49.730;8.614;2023-02-23T13:45:39;12.47;;;4.90;;
27113;SDS011;14648;49.730;8.614;2023-02-23T13:48:26;9.13;;;5.10;;
27113;SDS011;14648;49.730;8.614;2023-02-23T13:51:32;7.53;;;5.40;;
27113;SDS011;14648;49.730;8.614;2023-02-23T13:54:30;5.90;;;4.73;;
27113;SDS011;14648;49.730;8.614;2023-02-23T13:56:59;11.80;;;5.83;;
27113;SDS011;14648;49.730;8.614;2023-02-23T13:59:50;7.93;;;6.10;;
27113;SDS011;14648;49.730;8.614;2023-02-23T14:02:21;11.10;;;5.80;;
27113;SDS011;14648;49.730;8.614;2023-02-23T14:05:01;11.20;;;5.50;;
27113;SDS011;14648;49.730;8.614;2023-02-23T14:07:46;12.70;;;6.63;;
27113;SDS011;14648;49.730;8.614;2023-02-23T14:10:27;8.63;;;5.30;;
27113;SDS011;14648;49.730;8.614;2023-02-23T14:20:56;11.33;;;5.07;;
27113;SDS011;14648;49.730;8.614;2023-02-23T14:23:53;7.37;;;5.50;;
27113;SDS011;14648;49.730;8.614;2023-02-23T14:26:39;8.27;;;6.30;;
27113;SDS011;14648;49.730;8.614;2023-02-23T14:31:54;8.13;;;5.30;;
27113;SDS011;14648;49.730;8.614;2023-02-23T14:40:06;9.07;;;6.53;;
27113;SDS011;14648;49.730;8.614;2023-02-23T14:42:39;11.23;;;6.73;;
27113;SDS011;14648;49.730;8.614;2023-02-23T14:45:16;7.03;;;6.00;;
27113;SDS011;14648;49.730;8.614;2023-02-23T14:47:51;10.20;;;6.33;;
27113;SDS011;14648;49.730;8.614;2023-02-23T14:50:24;8.43;;;6.43;;
27113;SDS011;14648;49.730;8.614;2023-02-23T14:52:58;9.40;;;6.13;;
27113;SDS011;14648;49.730;8.614;2023-02-23T14:55:30;9.00;;;5.80;;
27113;SDS011;14648;49.730;8.614;2023-02-23T14:58:01;6.73;;;5.30;;
27113;SDS011;14648;49.730;8.614;2023-02-23T15:00:42;9.23;;;5.53;;
27113;SDS011;14648;49.730;8.614;2023-02-23T15:03:09;7.60;;;5.63;;
27113;SDS011;14648;49.730;8.614;2023-02-23T15:05:45;6.40;;;5.60;;
27113;SDS011;14648;49.730;8.614;2023-02-23T15:08:17;9.10;;;6.50;;
27113;SDS011;14648;49.730;8.614;2023-02-23T15:11:00;10.20;;;5.43;;
27113;SDS011;14648;49.730;8.614;2023-02-23T15:13:34;12.87;;;6.63;;
27113;SDS011;14648;49.730;8.614;2023-02-23T15:16:04;6.87;;;5.50;;
27113;SDS011;14648;49.730;8.614;2023-02-23T15:18:36;6.20;;;5.37;;
27113;SDS011;14648;49.730;8.614;2023-02-23T15:21:06;8.40;;;5.20;;
27113;SDS011;14648;49.730;8.614;2023-02-23T15:23:37;8.07;;;5.30;;
27113;SDS011;14648;49.730;8.614;2023-02-23T15:26:17;9.23;;;5.63;;
27113;SDS011;14648;49.730;8.614;2023-02-23T15:29:04;10.00;;;6.73;;
27113;SDS011;14648;49.730;8.614;2023-02-23T15:31:50;8.43;;;6.30;;
27113;SDS011;14648;49.730;8.614;2023-02-23T15:34:26;9.43;;;6.33;;
27113;SDS011;14648;49.730;8.614;2023-02-23T15:37:10;6.73;;;5.63;;
27113;SDS011;14648;49.730;8.614;2023-02-23T15:40:09;8.97;;;5.70;;
27113;SDS011;14648;49.730;8.614;2023-02-23T15:42:44;8.03;;;5.67;;
27113;SDS011;14648;49.730;8.614;2023-02-23T15:45:20;13.07;;;5.30;;
27113;SDS011;14648;49.730;8.614;2023-02-23T15:48:02;9.93;;;5.83;;
27113;SDS011;14648;49.730;8.614;2023-02-23T15:50:41;7.73;;;5.73;;
27113;SDS011;14648;49.730;8.614;2023-02-23T15:56:42;9.07;;;6.53;;
27113;SDS011;14648;49.730;8.614;2023-02-23T15:59:00;10.80;;;6.30;;
27113;SDS011;14648;49.730;8.614;2023-02-23T16:01:32;7.60;;;5.97;;
27113;SDS011;14648;49.730;8.614;2023-02-23T16:07:35;8.03;;;5.87;;
27113;SDS011;14648;49.730;8.614;2023-02-23T16:09:46;15.60;;;6.20;;
27113;SDS011;14648;49.730;8.614;2023-02-23T16:12:21;7.40;;;6.50;;
27113;SDS011;14648;49.730;8.614;2023-02-23T16:15:00;12.07;;;7.20;;
27113;SDS011;14648;49.730;8.614;2023-02-23T16:17:39;11.50;;;7.50;;
27113;SDS011;14648;49.730;8.614;2023-02-23T16:23:53;10.77;;;7.00;;
27113;SDS011;14648;49.730;8.614;2023-02-23T16:26:23;9.60;;;6.77;;
27113;SDS011;14648;49.730;8.614;2023-02-23T16:28:59;10.73;;;7.63;;
27113;SDS011;14648;49.730;8.614;2023-02-23T16:31:47;11.13;;;6.20;;
27113;SDS011;14648;49.730;8.614;2023-02-23T16:34:34;8.70;;;6.63;;
27113;SDS011;14648;49.730;8.614;2023-02-23T16:37:13;9.70;;;6.57;;
27113;SDS011;14648;49.730;8.614;2023-02-23T16:39:51;11.83;;;7.27;;
27113;SDS011;14648;49.730;8.614;2023-02-23T16:42:23;8.83;;;7.33;;
27113;SDS011;14648;49.730;8.614;2023-02-23T16:44:55;12.07;;;8.33;;
27113;SDS011;14648;49.730;8.614;2023-02-23T16:49:48;11.00;;;7.47;;
27113;SDS011;14648;49.730;8.614;2023-02-23T16:52:16;16.37;;;7.47;;
27113;SDS011;14648;49.730;8.614;2023-02-23T16:54:44;9.43;;;6.83;;
27113;SDS011;14648;49.730;8.614;2023-02-23T16:57:28;7.63;;;6.80;;
27113;SDS011;14648;49.730;8.614;2023-02-23T17:00:02;20.33;;;7.63;;
27113;SDS011;14648;49.730;8.614;2023-02-23T17:02:38;14.60;;;8.30;;
27113;SDS011;14648;49.730;8.614;2023-02-23T17:05:09;13.70;;;9.20;;
27113;SDS011;14648;49.730;8.614;2023-02-23T17:07:43;12.10;;;7.40;;
27113;SDS011;14648;49.730;8.614;2023-02-23T17:10:14;10.10;;;7.13;;
27113;SDS011;14648;49.730;8.614;2023-02-23T17:12:59;12.40;;;8.60;;
27113;SDS011;14648;49.730;8.614;2023-02-23T17:15:32;11.83;;;7.60;;
27113;SDS011;14648;49.730;8.614;2023-02-23T17:18:00;15.80;;;9.70;;
27113;SDS011;14648;49.730;8.614;2023-02-23T17:20:27;20.33;;;12.80;;
27113;SDS011;14648;49.730;8.614;2023-02-23T17:22:54;13.40;;;9.70;;
27113;SDS011;14648;49.730;8.614;2023-02-23T17:25:22;12.20;;;8.90;;
27113;SDS011;14648;49.730;8.614;2023-02-23T17:27:51;17.03;;;9.30;;